createdAt,value
2023-05-07T00:00:16.551Z,0.88
2023-05-07T00:02:43.914Z,0.87
2023-05-07T00:05:11.169Z,0.87
2023-05-07T00:07:38.551Z,0.96
2023-05-07T00:10:07.778Z,1.00
2023-05-07T00:12:34.936Z,0.98
2023-05-07T00:15:03.868Z,1.02
2023-05-07T00:17:34.463Z,1.00
2023-05-07T00:20:01.651Z,0.96
2023-05-07T00:22:31.146Z,0.96
2023-05-07T00:24:58.237Z,0.98
2023-05-07T00:27:25.833Z,1.01
2023-05-07T00:29:52.890Z,0.92
2023-05-07T00:32:20.030Z,0.88
2023-05-07T00:34:47.097Z,0.82
2023-05-07T00:37:14.251Z,0.77
2023-05-07T00:39:41.435Z,0.82
2023-05-07T00:42:09.211Z,0.77
2023-05-07T00:44:36.182Z,0.73
2023-05-07T00:47:04.343Z,0.72
2023-05-07T00:49:42.487Z,0.76
2023-05-07T00:52:11.412Z,0.67
2023-05-07T00:54:38.530Z,0.58
2023-05-07T00:57:05.703Z,0.57
2023-05-07T00:59:33.164Z,0.58
2023-05-07T01:02:00.540Z,0.60
2023-05-07T01:04:27.853Z,0.63
2023-05-07T01:06:57.187Z,0.62
2023-05-07T01:09:25.458Z,0.54
2023-05-07T01:11:53.613Z,0.51
2023-05-07T01:14:21.564Z,0.49
2023-05-07T01:16:49.463Z,0.49
2023-05-07T01:19:18.887Z,0.42
2023-05-07T01:21:48.879Z,0.47
2023-05-07T01:24:18.000Z,0.44
2023-05-07T01:26:45.852Z,0.46
2023-05-07T01:29:15.451Z,0.43
2023-05-07T01:31:42.361Z,0.37
2023-05-07T01:34:10.457Z,0.42
2023-05-07T01:36:38.250Z,0.40
2023-05-07T01:39:05.436Z,0.44
2023-05-07T01:41:32.429Z,0.44
2023-05-07T01:43:59.589Z,0.46
2023-05-07T01:46:27.495Z,0.49
2023-05-07T01:48:54.926Z,0.44
2023-05-07T01:51:23.323Z,0.34
2023-05-07T01:53:51.943Z,0.32
2023-05-07T01:56:20.139Z,0.31
2023-05-07T01:58:48.124Z,0.33
2023-05-07T02:01:15.647Z,0.29
2023-05-07T02:03:43.817Z,0.25
2023-05-07T02:06:18.945Z,0.20
2023-05-07T02:08:46.140Z,0.25
2023-05-07T02:11:14.885Z,0.20
2023-05-07T02:13:42.584Z,0.22
2023-05-07T02:16:09.900Z,0.29
2023-05-07T02:18:37.236Z,0.29
2023-05-07T02:21:04.807Z,0.36
2023-05-07T02:23:32.142Z,0.36
2023-05-07T02:25:59.451Z,0.44
2023-05-07T02:28:26.565Z,0.52
2023-05-07T02:31:04.311Z,0.63
2023-05-07T02:33:31.851Z,0.69
2023-05-07T02:36:09.538Z,0.68
2023-05-07T02:38:40.611Z,0.72
2023-05-07T02:41:07.825Z,0.80
2023-05-07T02:43:34.749Z,0.89
2023-05-07T02:46:05.386Z,0.86
2023-05-07T02:48:34.089Z,0.83
2023-05-07T02:51:01.326Z,0.84
2023-05-07T02:53:28.557Z,0.89
2023-05-07T02:55:57.919Z,0.93
2023-05-07T02:58:25.004Z,0.96
2023-05-07T03:00:52.103Z,1.00
2023-05-07T03:03:29.979Z,0.93
2023-05-07T03:05:57.168Z,0.88
2023-05-07T03:08:24.184Z,0.95
2023-05-07T03:10:51.387Z,0.99
2023-05-07T03:13:18.725Z,1.02
2023-05-07T03:15:46.531Z,1.12
2023-05-07T03:18:13.767Z,1.17
2023-05-07T03:20:41.215Z,1.27
2023-05-07T03:23:08.555Z,1.35
2023-05-07T03:25:36.042Z,1.45
2023-05-07T03:28:03.199Z,1.53
2023-05-07T03:30:39.232Z,1.59
2023-05-07T03:33:06.371Z,1.71
2023-05-07T03:35:33.624Z,1.86
2023-05-07T03:38:01.270Z,2.01
2023-05-07T03:40:31.243Z,2.13
2023-05-07T03:42:58.473Z,2.22
2023-05-07T03:45:27.247Z,2.26
2023-05-07T03:48:06.809Z,2.43
2023-05-07T03:50:34.143Z,2.45
2023-05-07T03:53:01.180Z,2.62
2023-05-07T03:55:30.437Z,2.84
2023-05-07T03:58:00.192Z,3.10
2023-05-07T04:00:28.669Z,3.35
2023-05-07T04:03:00.222Z,3.56
2023-05-07T04:05:31.049Z,3.81
2023-05-07T04:08:02.036Z,3.93
2023-05-07T04:10:36.631Z,4.18
2023-05-07T04:13:07.972Z,4.37
2023-05-07T04:15:36.868Z,4.54
2023-05-07T04:18:06.366Z,4.75
2023-05-07T04:20:35.805Z,5.04
2023-05-07T04:23:03.854Z,5.22
2023-05-07T04:25:31.733Z,5.38
2023-05-07T04:28:08.293Z,5.64
2023-05-07T04:30:36.096Z,5.82
2023-05-07T04:33:05.694Z,6.00
2023-05-07T04:35:32.946Z,6.19
2023-05-07T04:38:00.499Z,6.37
2023-05-07T04:40:27.472Z,6.60
2023-05-07T04:42:54.965Z,6.87
2023-05-07T04:45:22.637Z,7.11
2023-05-07T04:47:51.549Z,7.33
2023-05-07T04:50:20.423Z,7.46
2023-05-07T04:52:49.326Z,7.50
2023-05-07T04:55:16.854Z,7.51
2023-05-07T04:57:43.929Z,7.68
2023-05-07T05:00:17.691Z,7.88
2023-05-07T05:02:46.453Z,7.96
2023-05-07T05:05:17.014Z,7.95
2023-05-07T05:07:45.109Z,8.02
2023-05-07T05:10:13.090Z,8.05
2023-05-07T05:12:41.720Z,8.21
2023-05-07T05:15:09.670Z,8.46
2023-05-07T05:17:37.650Z,8.70
2023-05-07T05:20:07.042Z,8.63
2023-05-07T05:22:35.357Z,8.65
2023-05-07T05:25:03.074Z,8.81
2023-05-07T05:27:30.833Z,8.86
2023-05-07T05:29:58.003Z,8.93
2023-05-07T05:32:25.337Z,9.04
2023-05-07T05:34:55.106Z,9.02
2023-05-07T05:37:22.187Z,9.22
2023-05-07T05:39:50.416Z,9.24
2023-05-07T05:42:17.511Z,9.33
2023-05-07T05:44:44.846Z,9.44
2023-05-07T05:47:12.414Z,9.49
2023-05-07T05:49:39.815Z,9.54
2023-05-07T05:52:09.872Z,9.58
2023-05-07T05:54:38.377Z,9.35
2023-05-07T05:57:05.966Z,9.06
2023-05-07T05:59:33.684Z,8.93
2023-05-07T06:02:00.990Z,8.80
2023-05-07T06:04:28.640Z,8.69
2023-05-07T06:06:57.817Z,8.65
2023-05-07T06:09:26.272Z,8.70
2023-05-07T06:11:53.293Z,8.85
2023-05-07T06:14:20.937Z,9.05
2023-05-07T06:16:48.156Z,9.20
2023-05-07T06:19:15.428Z,9.24
2023-05-07T06:21:43.149Z,9.32
2023-05-07T06:24:10.535Z,9.44
2023-05-07T06:26:39.354Z,9.64
2023-05-07T06:29:09.576Z,9.73
2023-05-07T06:31:36.983Z,9.82
2023-05-07T06:34:07.468Z,9.80
2023-05-07T06:36:38.094Z,9.87
2023-05-07T06:39:28.244Z,10.04
2023-05-07T06:41:55.431Z,10.24
2023-05-07T06:44:27.298Z,10.17
2023-05-07T06:47:08.029Z,10.38
2023-05-07T06:49:36.081Z,10.61
2023-05-07T06:52:03.342Z,10.56
2023-05-07T06:54:30.777Z,10.54
2023-05-07T06:56:58.870Z,10.52
2023-05-07T06:59:28.009Z,10.53
2023-05-07T07:01:55.782Z,10.54
2023-05-07T07:04:25.022Z,10.39
2023-05-07T07:06:59.917Z,10.46
2023-05-07T07:09:27.071Z,10.52
2023-05-07T07:11:55.395Z,10.57
2023-05-07T07:14:22.889Z,10.71
2023-05-07T07:16:52.192Z,10.43
2023-05-07T07:19:21.416Z,10.16
2023-05-07T07:21:52.369Z,9.84
2023-05-07T07:24:22.420Z,9.40
2023-05-07T07:26:56.431Z,9.18
2023-05-07T07:29:29.173Z,9.40
2023-05-07T07:31:56.743Z,9.73
2023-05-07T07:34:24.377Z,9.98
2023-05-07T07:36:51.632Z,10.17
2023-05-07T07:39:19.901Z,10.28
2023-05-07T07:41:50.217Z,10.45
2023-05-07T07:44:18.929Z,10.27
2023-05-07T07:46:51.864Z,9.65
2023-05-07T07:49:20.148Z,9.33
2023-05-07T07:51:47.903Z,9.30
2023-05-07T07:54:14.927Z,9.18
2023-05-07T07:56:42.680Z,9.05
2023-05-07T07:59:11.290Z,8.91
2023-05-07T08:01:41.119Z,8.91
2023-05-07T08:04:08.880Z,9.09
2023-05-07T08:06:39.587Z,9.21
2023-05-07T08:11:56.634Z,9.20
2023-05-07T08:17:20.314Z,9.67
2023-05-07T08:19:47.993Z,9.74
2023-05-07T08:22:16.072Z,9.71
2023-05-07T08:24:43.247Z,9.39
2023-05-07T08:27:11.295Z,8.90
2023-05-07T08:29:40.620Z,8.76
2023-05-07T08:32:08.029Z,8.70
2023-05-07T08:34:35.151Z,8.73
2023-05-07T08:37:05.288Z,8.72
2023-05-07T08:39:34.309Z,8.79
2023-05-07T08:42:03.382Z,8.82
2023-05-07T08:44:34.222Z,8.72
2023-05-07T08:47:02.350Z,8.70
2023-05-07T08:49:31.657Z,8.69
2023-05-07T08:51:58.836Z,8.69
2023-05-07T08:54:26.177Z,8.77
2023-05-07T08:56:54.002Z,8.99
2023-05-07T08:59:21.147Z,9.17
2023-05-07T09:01:48.616Z,9.33
2023-05-07T09:04:16.408Z,9.35
2023-05-07T09:06:44.891Z,9.28
2023-05-07T09:09:15.934Z,9.53
2023-05-07T09:11:43.375Z,9.82
2023-05-07T09:14:12.071Z,10.12
2023-05-07T09:16:43.820Z,10.17
2023-05-07T09:19:10.908Z,10.01
2023-05-07T09:21:43.191Z,10.03
2023-05-07T09:24:11.533Z,9.94
2023-05-07T09:26:41.396Z,9.72
2023-05-07T09:29:09.544Z,9.53
2023-05-07T09:31:39.762Z,9.40
2023-05-07T09:34:09.228Z,9.38
2023-05-07T09:36:39.230Z,9.46
2023-05-07T09:39:06.514Z,9.64
2023-05-07T09:41:33.636Z,9.64
2023-05-07T09:44:09.880Z,9.81
2023-05-07T09:46:43.881Z,10.00
2023-05-07T09:49:22.673Z,10.27
2023-05-07T09:51:52.705Z,10.45
2023-05-07T09:54:22.989Z,10.28
2023-05-07T09:56:54.045Z,10.07
2023-05-07T09:59:24.200Z,9.89
2023-05-07T10:01:51.554Z,9.97
2023-05-07T10:04:18.827Z,10.15
2023-05-07T10:06:46.701Z,10.36
2023-05-07T10:09:14.097Z,10.37
2023-05-07T10:11:41.383Z,10.36
2023-05-07T10:14:08.553Z,10.29
2023-05-07T10:16:37.583Z,10.29
2023-05-07T10:19:11.046Z,10.38
2023-05-07T10:21:40.982Z,10.37
2023-05-07T10:24:22.953Z,10.30
2023-05-07T10:26:52.114Z,10.41
2023-05-07T10:29:48.645Z,10.70
2023-05-07T10:32:37.906Z,10.94
2023-05-07T10:35:10.721Z,11.03
2023-05-07T10:37:38.037Z,10.88
2023-05-07T10:40:05.795Z,11.04
2023-05-07T10:42:59.534Z,11.18
2023-05-07T10:45:29.471Z,11.18
2023-05-07T10:48:27.910Z,11.05
2023-05-07T10:51:19.711Z,10.91
2023-05-07T10:53:47.469Z,10.85
2023-05-07T10:56:20.232Z,11.04
2023-05-07T10:59:35.580Z,11.19
2023-05-07T11:02:16.781Z,11.45
2023-05-07T11:05:22.497Z,11.40
2023-05-07T11:08:01.848Z,11.31
2023-05-07T11:10:57.261Z,11.14
2023-05-07T11:13:50.499Z,10.89
2023-05-07T11:16:39.282Z,10.53
2023-05-07T11:19:16.412Z,10.22
2023-05-07T11:21:49.696Z,10.29
2023-05-07T11:24:43.434Z,10.56
2023-05-07T11:27:12.549Z,10.64
2023-05-07T11:29:39.581Z,10.73
2023-05-07T11:32:11.181Z,10.71
2023-05-07T11:34:44.452Z,10.48
2023-05-07T11:37:13.678Z,10.28
2023-05-07T11:39:48.025Z,10.04
2023-05-07T11:42:34.035Z,9.78
2023-05-07T11:45:01.402Z,9.69
2023-05-07T11:47:31.394Z,9.62
2023-05-07T11:50:00.216Z,9.49
2023-05-07T11:52:27.650Z,9.72
2023-05-07T11:54:58.001Z,9.95
2023-05-07T11:57:43.768Z,10.18
2023-05-07T12:00:11.776Z,10.43
2023-05-07T12:02:43.196Z,10.46
2023-05-07T12:05:11.076Z,10.71
2023-05-07T12:07:38.255Z,10.91
2023-05-07T12:10:08.608Z,11.13
2023-05-07T12:12:43.336Z,11.24
2023-05-07T12:15:11.701Z,11.36
2023-05-07T12:17:39.286Z,11.41
2023-05-07T12:20:07.719Z,11.26
2023-05-07T12:22:35.213Z,11.15
2023-05-07T12:25:03.628Z,11.09
2023-05-07T12:27:33.084Z,10.83
2023-05-07T12:30:19.552Z,10.54
2023-05-07T12:32:47.393Z,10.48
2023-05-07T12:35:16.053Z,10.29
2023-05-07T12:37:46.589Z,10.08
2023-05-07T12:40:15.864Z,9.81
2023-05-07T12:42:45.693Z,9.61
2023-05-07T12:45:17.502Z,9.31
2023-05-07T12:47:48.246Z,9.18
2023-05-07T12:50:16.534Z,9.22
2023-05-07T12:52:47.237Z,9.48
2023-05-07T12:55:15.818Z,9.54
2023-05-07T12:57:43.764Z,9.39
2023-05-07T13:00:13.214Z,9.37
2023-05-07T13:02:41.198Z,9.54
2023-05-07T13:05:09.679Z,9.77
2023-05-07T13:07:38.148Z,9.96
2023-05-07T13:10:06.045Z,10.23
2023-05-07T13:12:33.477Z,10.39
2023-05-07T13:15:00.732Z,10.45
2023-05-07T13:17:27.956Z,10.38
2023-05-07T13:19:55.133Z,10.26
2023-05-07T13:22:22.249Z,10.14
2023-05-07T13:24:49.403Z,10.13
2023-05-07T13:27:16.669Z,10.17
2023-05-07T13:29:43.742Z,10.11
2023-05-07T13:32:10.918Z,9.97
2023-05-07T13:34:38.241Z,9.87
2023-05-07T13:37:05.324Z,9.83
2023-05-07T13:39:32.707Z,9.74
2023-05-07T13:41:59.777Z,9.69
2023-05-07T13:44:27.499Z,9.56
2023-05-07T13:46:54.445Z,9.47
2023-05-07T13:49:21.587Z,9.41
2023-05-07T13:51:48.480Z,9.37
2023-05-07T13:54:15.708Z,9.27
2023-05-07T13:56:42.876Z,9.17
2023-05-07T13:59:10.145Z,9.09
2023-05-07T14:01:37.303Z,9.04
2023-05-07T14:04:04.462Z,9.07
2023-05-07T14:06:31.462Z,9.00
2023-05-07T14:08:59.234Z,8.99
2023-05-07T14:11:26.543Z,9.00
2023-05-07T14:13:53.609Z,8.88
2023-05-07T14:16:20.590Z,8.84
2023-05-07T14:18:47.704Z,8.82
2023-05-07T14:21:15.546Z,8.81
2023-05-07T14:23:42.583Z,8.74
2023-05-07T14:26:09.609Z,8.66
2023-05-07T14:28:36.819Z,8.57
2023-05-07T14:31:04.096Z,8.50
2023-05-07T14:33:31.163Z,8.40
2023-05-07T14:35:58.149Z,8.36
2023-05-07T14:38:25.180Z,8.33
2023-05-07T14:40:53.256Z,8.30
2023-05-07T14:43:20.553Z,8.26
2023-05-07T14:45:49.169Z,8.18
2023-05-07T14:48:16.474Z,8.20
2023-05-07T14:50:43.848Z,8.26
2023-05-07T14:53:10.866Z,8.40
2023-05-07T14:55:37.856Z,8.51
2023-05-07T14:58:04.900Z,8.53
2023-05-07T15:00:32.076Z,8.62
2023-05-07T15:03:05.810Z,8.71
2023-05-07T15:05:33.047Z,8.75
2023-05-07T15:08:00.723Z,8.74
2023-05-07T15:10:27.825Z,8.76
2023-05-07T15:12:54.950Z,8.78
2023-05-07T15:15:22.675Z,8.83
2023-05-07T15:17:50.577Z,8.87
2023-05-07T15:20:18.664Z,8.88
2023-05-07T15:22:45.695Z,8.79
2023-05-07T15:25:12.941Z,8.64
2023-05-07T15:27:40.498Z,8.52
2023-05-07T15:30:08.187Z,8.46
2023-05-07T15:32:35.194Z,8.47
2023-05-07T15:35:02.417Z,8.47
2023-05-07T15:37:32.113Z,8.50
2023-05-07T15:39:59.139Z,8.47
2023-05-07T15:42:26.390Z,8.40
2023-05-07T15:44:53.555Z,8.33
2023-05-07T15:47:20.725Z,8.27
2023-05-07T15:49:47.949Z,8.21
2023-05-07T15:52:15.846Z,8.20
2023-05-07T15:54:43.019Z,8.16
2023-05-07T15:57:11.654Z,8.09
2023-05-07T15:59:38.936Z,8.04
2023-05-07T16:02:05.996Z,7.95
2023-05-07T16:04:33.138Z,7.89
2023-05-07T16:07:00.193Z,7.86
2023-05-07T16:09:29.368Z,7.85
2023-05-07T16:11:56.730Z,7.83
2023-05-07T16:14:24.406Z,7.83
2023-05-07T16:16:52.346Z,7.87
2023-05-07T16:19:23.409Z,7.87
2023-05-07T16:21:50.837Z,7.85
2023-05-07T16:24:17.929Z,7.79
2023-05-07T16:26:45.047Z,7.71
2023-05-07T16:29:12.107Z,7.60
2023-05-07T16:31:39.436Z,7.50
2023-05-07T16:34:06.597Z,7.40
2023-05-07T16:36:33.887Z,7.37
2023-05-07T16:39:00.980Z,7.38
2023-05-07T16:41:28.323Z,7.36
2023-05-07T16:43:57.233Z,7.34
2023-05-07T16:46:24.325Z,7.35
2023-05-07T16:48:51.448Z,7.32
2023-05-07T16:51:18.508Z,7.26
2023-05-07T16:53:45.428Z,7.16
2023-05-07T16:56:13.002Z,7.11
2023-05-07T16:58:40.710Z,7.03
2023-05-07T17:01:09.098Z,6.93
2023-05-07T17:03:39.382Z,6.82
2023-05-07T17:06:13.013Z,6.71
2023-05-07T17:08:42.618Z,6.66
2023-05-07T17:11:10.002Z,6.56
2023-05-07T17:13:37.005Z,6.46
2023-05-07T17:16:04.453Z,6.42
2023-05-07T17:18:31.448Z,6.34
2023-05-07T17:20:58.539Z,6.33
2023-05-07T17:23:25.634Z,6.36
2023-05-07T17:25:52.653Z,6.34
2023-05-07T17:28:19.842Z,6.33
2023-05-07T17:30:48.199Z,6.20
2023-05-07T17:33:21.341Z,6.10
2023-05-07T17:35:49.901Z,6.00
2023-05-07T17:38:16.992Z,5.87
2023-05-07T17:40:44.134Z,5.85
2023-05-07T17:43:11.085Z,5.82
2023-05-07T17:45:38.117Z,5.84
2023-05-07T17:48:05.639Z,5.75
2023-05-07T17:50:32.790Z,5.63
2023-05-07T17:53:02.113Z,5.52
2023-05-07T17:55:30.344Z,5.42
2023-05-07T17:58:10.028Z,5.34
2023-05-07T18:00:40.218Z,5.23
2023-05-07T18:03:07.461Z,5.21
2023-05-07T18:05:38.087Z,5.20
2023-05-07T18:08:08.321Z,5.24
2023-05-07T18:10:35.457Z,5.24
2023-05-07T18:13:02.610Z,5.21
2023-05-07T18:15:29.768Z,5.18
2023-05-07T18:17:56.754Z,5.17
2023-05-07T18:20:23.867Z,5.13
2023-05-07T18:22:50.953Z,5.08
2023-05-07T18:25:18.110Z,5.01
2023-05-07T18:27:45.204Z,4.95
2023-05-07T18:30:12.836Z,4.93
2023-05-07T18:32:42.893Z,4.93
2023-05-07T18:35:11.932Z,4.93
2023-05-07T18:37:39.095Z,4.93
2023-05-07T18:40:08.076Z,4.94
2023-05-07T18:42:37.264Z,4.95
2023-05-07T18:45:05.970Z,5.01
2023-05-07T18:47:36.117Z,4.97
2023-05-07T18:50:03.571Z,4.92
2023-05-07T18:52:31.917Z,4.86
2023-05-07T18:54:58.985Z,4.81
2023-05-07T18:57:27.718Z,4.72
2023-05-07T18:59:57.779Z,4.63
2023-05-07T19:02:24.993Z,4.58
2023-05-07T19:04:52.188Z,4.55
2023-05-07T19:07:22.453Z,4.50
2023-05-07T19:10:03.713Z,4.43
2023-05-07T19:12:33.543Z,4.41
2023-05-07T19:15:00.589Z,4.46
2023-05-07T19:17:33.810Z,4.43
2023-05-07T19:20:00.936Z,4.42
2023-05-07T19:22:28.543Z,4.35
2023-05-07T19:24:55.463Z,4.36
2023-05-07T19:27:22.533Z,4.29
2023-05-07T19:29:49.617Z,4.20
2023-05-07T19:32:16.681Z,4.24
2023-05-07T19:34:46.582Z,4.21
2023-05-07T19:37:13.526Z,4.18
2023-05-07T19:39:40.956Z,4.19
2023-05-07T19:42:08.123Z,4.19
2023-05-07T19:44:35.183Z,4.15
2023-05-07T19:47:03.771Z,4.10
2023-05-07T19:49:30.828Z,4.04
2023-05-07T19:51:58.256Z,4.01
2023-05-07T19:54:25.322Z,3.93
2023-05-07T19:56:52.528Z,3.87
2023-05-07T19:59:19.416Z,3.79
2023-05-07T20:01:46.522Z,3.78
2023-05-07T20:04:13.618Z,3.80
2023-05-07T20:06:40.649Z,3.80
2023-05-07T20:09:11.724Z,3.75
2023-05-07T20:11:39.856Z,3.72
2023-05-07T20:14:07.049Z,3.69
2023-05-07T20:16:34.178Z,3.77
2023-05-07T20:19:01.237Z,3.87
2023-05-07T20:21:28.342Z,3.90
2023-05-07T20:23:55.641Z,3.98
2023-05-07T20:26:22.765Z,3.99
2023-05-07T20:28:50.030Z,3.91
2023-05-07T20:31:17.412Z,3.86
2023-05-07T20:33:44.550Z,3.86
2023-05-07T20:36:11.666Z,3.79
2023-05-07T20:38:38.761Z,3.72
2023-05-07T20:41:10.003Z,3.67
2023-05-07T20:43:40.144Z,3.60
2023-05-07T20:46:07.934Z,3.52
2023-05-07T20:48:35.452Z,3.45
2023-05-07T20:51:02.765Z,3.41
2023-05-07T20:53:30.567Z,3.47
2023-05-07T20:55:58.298Z,3.50
2023-05-07T20:58:26.103Z,3.52
2023-05-07T21:00:53.422Z,3.51
2023-05-07T21:03:20.791Z,3.54
2023-05-07T21:05:57.844Z,3.47
2023-05-07T21:08:24.885Z,3.44
2023-05-07T21:10:52.548Z,3.44
2023-05-07T21:13:19.803Z,3.48
2023-05-07T21:15:47.093Z,3.52
2023-05-07T21:18:14.217Z,3.52
2023-05-07T21:20:41.657Z,3.40
2023-05-07T21:23:08.768Z,3.38
2023-05-07T21:25:39.180Z,3.37
2023-05-07T21:28:08.012Z,3.32
2023-05-07T21:30:35.637Z,3.23
2023-05-07T21:33:02.751Z,3.17
2023-05-07T21:35:29.916Z,3.08
2023-05-07T21:37:57.057Z,3.04
2023-05-07T21:40:24.108Z,3.04
2023-05-07T21:42:51.360Z,3.02
2023-05-07T21:45:18.620Z,3.02
2023-05-07T21:47:46.304Z,3.02
2023-05-07T21:50:13.712Z,3.02
2023-05-07T21:52:41.175Z,3.01
2023-05-07T21:55:08.816Z,2.97
2023-05-07T21:57:40.746Z,2.95
2023-05-07T22:00:09.511Z,2.94
2023-05-07T22:02:37.090Z,2.92
2023-05-07T22:05:04.827Z,2.86
2023-05-07T22:07:33.569Z,2.79
2023-05-07T22:10:01.119Z,2.76
2023-05-07T22:12:28.441Z,2.73
2023-05-07T22:14:55.585Z,2.74
2023-05-07T22:17:24.580Z,2.76
2023-05-07T22:19:51.988Z,2.73
2023-05-07T22:22:19.364Z,2.63
2023-05-07T22:24:47.385Z,2.57
2023-05-07T22:27:14.499Z,2.54
2023-05-07T22:29:41.628Z,2.48
2023-05-07T22:32:10.536Z,2.50
2023-05-07T22:34:39.584Z,2.55
2023-05-07T22:37:06.623Z,2.56
2023-05-07T22:39:35.336Z,2.54
2023-05-07T22:42:02.492Z,2.47
2023-05-07T22:44:29.875Z,2.44
2023-05-07T22:46:57.175Z,2.38
2023-05-07T22:49:24.367Z,2.31
2023-05-07T22:51:51.437Z,2.21
2023-05-07T22:54:18.445Z,2.13
2023-05-07T22:56:45.483Z,2.09
2023-05-07T22:59:13.527Z,2.14
2023-05-07T23:01:40.751Z,2.21
2023-05-07T23:04:09.048Z,2.25
2023-05-07T23:06:36.334Z,2.23
2023-05-07T23:09:04.271Z,2.23
2023-05-07T23:11:31.530Z,2.25
2023-05-07T23:13:58.504Z,2.28
2023-05-07T23:16:25.934Z,2.29
2023-05-07T23:18:53.049Z,2.28
2023-05-07T23:21:20.338Z,2.27
2023-05-07T23:23:50.829Z,2.28
2023-05-07T23:26:17.993Z,2.31
2023-05-07T23:28:46.062Z,2.34
2023-05-07T23:31:13.160Z,2.32
2023-05-07T23:33:40.506Z,2.27
2023-05-07T23:36:08.262Z,2.21
2023-05-07T23:38:35.739Z,2.17
2023-05-07T23:41:03.026Z,2.17
2023-05-07T23:43:30.152Z,2.23
2023-05-07T23:45:57.357Z,2.20
2023-05-07T23:48:24.423Z,2.22
2023-05-07T23:50:51.606Z,2.18
2023-05-07T23:53:18.712Z,2.17
2023-05-07T23:55:45.807Z,2.16
2023-05-07T23:58:13.076Z,2.13
